sensor_id;sensor_type;location;lat;lon;timestamp;temperature;humidity
43087;DHT22;28708;52.224;6.924;2023-04-24T00:01:13;10.20;99.90
43087;DHT22;28708;52.224;6.924;2023-04-24T00:03:40;10.20;99.90
43087;DHT22;28708;52.224;6.924;2023-04-24T00:06:06;10.20;99.90
43087;DHT22;28708;52.224;6.924;2023-04-24T00:08:36;10.20;99.90
43087;DHT22;28708;52.224;6.924;2023-04-24T00:11:02;10.20;99.90
43087;DHT22;28708;52.224;6.924;2023-04-24T00:13:28;10.20;99.90
43087;DHT22;28708;52.224;6.924;2023-04-24T00:15:55;10.20;99.90
43087;DHT22;28708;52.224;6.924;2023-04-24T00:18:21;10.20;99.90
43087;DHT22;28708;52.224;6.924;2023-04-24T00:20:46;10.30;99.90
43087;DHT22;28708;52.224;6.924;2023-04-24T00:23:12;10.30;99.90
43087;DHT22;28708;52.224;6.924;2023-04-24T00:25:41;10.20;99.90
43087;DHT22;28708;52.224;6.924;2023-04-24T00:28:07;10.30;99.90
43087;DHT22;28708;52.224;6.924;2023-04-24T00:30:32;10.20;99.90
43087;DHT22;28708;52.224;6.924;2023-04-24T00:32:58;10.20;99.90
43087;DHT22;28708;52.224;6.924;2023-04-24T00:35:24;10.20;99.90
43087;DHT22;28708;52.224;6.924;2023-04-24T00:37:49;10.30;99.90
43087;DHT22;28708;52.224;6.924;2023-04-24T00:40:15;10.30;99.90
43087;DHT22;28708;52.224;6.924;2023-04-24T00:42:43;10.30;99.90
43087;DHT22;28708;52.224;6.924;2023-04-24T00:45:09;10.20;99.90
43087;DHT22;28708;52.224;6.924;2023-04-24T00:47:36;10.30;99.90
43087;DHT22;28708;52.224;6.924;2023-04-24T00:50:03;10.20;99.90
43087;DHT22;28708;52.224;6.924;2023-04-24T00:52:29;10.30;99.90
43087;DHT22;28708;52.224;6.924;2023-04-24T00:54:56;10.30;99.90
43087;DHT22;28708;52.224;6.924;2023-04-24T00:57:22;10.30;99.90
43087;DHT22;28708;52.224;6.924;2023-04-24T00:59:49;10.20;99.90
43087;DHT22;28708;52.224;6.924;2023-04-24T01:02:15;10.20;99.90
43087;DHT22;28708;52.224;6.924;2023-04-24T01:04:41;10.20;99.90
43087;DHT22;28708;52.224;6.924;2023-04-24T01:07:07;10.20;99.90
43087;DHT22;28708;52.224;6.924;2023-04-24T01:09:37;10.20;99.90
43087;DHT22;28708;52.224;6.924;2023-04-24T01:12:04;10.20;99.90
43087;DHT22;28708;52.224;6.924;2023-04-24T01:14:31;10.20;99.90
43087;DHT22;28708;52.224;6.924;2023-04-24T01:16:56;10.20;99.90
43087;DHT22;28708;52.224;6.924;2023-04-24T01:19:23;10.20;99.90
43087;DHT22;28708;52.224;6.924;2023-04-24T01:21:51;10.20;99.90
43087;DHT22;28708;52.224;6.924;2023-04-24T01:24:19;10.20;99.90
43087;DHT22;28708;52.224;6.924;2023-04-24T01:26:46;10.20;99.90
43087;DHT22;28708;52.224;6.924;2023-04-24T01:29:12;10.10;99.90
43087;DHT22;28708;52.224;6.924;2023-04-24T01:31:39;10.20;99.90
43087;DHT22;28708;52.224;6.924;2023-04-24T01:34:05;10.20;99.90
43087;DHT22;28708;52.224;6.924;2023-04-24T01:36:32;10.20;99.90
43087;DHT22;28708;52.224;6.924;2023-04-24T01:38:58;10.20;99.90
43087;DHT22;28708;52.224;6.924;2023-04-24T01:41:25;10.20;99.90
43087;DHT22;28708;52.224;6.924;2023-04-24T01:43:51;10.20;99.90
43087;DHT22;28708;52.224;6.924;2023-04-24T01:46:19;10.20;99.90
43087;DHT22;28708;52.224;6.924;2023-04-24T01:48:45;10.10;99.90
43087;DHT22;28708;52.224;6.924;2023-04-24T01:51:11;10.10;99.90
43087;DHT22;28708;52.224;6.924;2023-04-24T01:53:36;10.10;99.90
43087;DHT22;28708;52.224;6.924;2023-04-24T01:56:02;10.10;99.90
43087;DHT22;28708;52.224;6.924;2023-04-24T01:58:29;10.20;99.90
43087;DHT22;28708;52.224;6.924;2023-04-24T02:00:58;10.20;99.90
43087;DHT22;28708;52.224;6.924;2023-04-24T02:03:26;10.20;99.90
43087;DHT22;28708;52.224;6.924;2023-04-24T02:05:52;10.20;99.90
43087;DHT22;28708;52.224;6.924;2023-04-24T02:08:18;10.20;99.90
43087;DHT22;28708;52.224;6.924;2023-04-24T02:10:44;10.10;99.90
43087;DHT22;28708;52.224;6.924;2023-04-24T02:13:09;10.20;99.90
43087;DHT22;28708;52.224;6.924;2023-04-24T02:15:35;10.20;99.90
43087;DHT22;28708;52.224;6.924;2023-04-24T02:18:02;10.20;99.90
43087;DHT22;28708;52.224;6.924;2023-04-24T02:20:31;10.20;99.90
43087;DHT22;28708;52.224;6.924;2023-04-24T02:22:59;10.20;99.90
43087;DHT22;28708;52.224;6.924;2023-04-24T02:25:24;10.20;99.90
43087;DHT22;28708;52.224;6.924;2023-04-24T02:27:53;10.10;99.90
43087;DHT22;28708;52.224;6.924;2023-04-24T02:30:18;10.10;99.90
43087;DHT22;28708;52.224;6.924;2023-04-24T02:32:44;10.00;99.90
43087;DHT22;28708;52.224;6.924;2023-04-24T02:35:10;10.00;99.90
43087;DHT22;28708;52.224;6.924;2023-04-24T02:37:36;10.00;99.90
43087;DHT22;28708;52.224;6.924;2023-04-24T02:40:01;10.00;99.90
43087;DHT22;28708;52.224;6.924;2023-04-24T02:42:27;10.00;99.90
43087;DHT22;28708;52.224;6.924;2023-04-24T02:44:53;9.90;99.90
43087;DHT22;28708;52.224;6.924;2023-04-24T02:47:18;9.80;99.90
43087;DHT22;28708;52.224;6.924;2023-04-24T02:49:45;9.80;99.90
43087;DHT22;28708;52.224;6.924;2023-04-24T02:52:10;9.80;99.90
43087;DHT22;28708;52.224;6.924;2023-04-24T02:54:36;9.80;99.90
43087;DHT22;28708;52.224;6.924;2023-04-24T02:57:02;9.70;99.90
43087;DHT22;28708;52.224;6.924;2023-04-24T02:59:28;9.70;99.90
43087;DHT22;28708;52.224;6.924;2023-04-24T03:01:54;9.70;99.90
43087;DHT22;28708;52.224;6.924;2023-04-24T03:04:20;9.70;99.90
43087;DHT22;28708;52.224;6.924;2023-04-24T03:06:47;9.70;99.90
43087;DHT22;28708;52.224;6.924;2023-04-24T03:09:13;9.70;99.90
43087;DHT22;28708;52.224;6.924;2023-04-24T03:11:38;9.50;99.90
43087;DHT22;28708;52.224;6.924;2023-04-24T03:14:07;9.50;99.90
43087;DHT22;28708;52.224;6.924;2023-04-24T03:16:32;9.60;99.90
43087;DHT22;28708;52.224;6.924;2023-04-24T03:18:58;9.60;99.90
43087;DHT22;28708;52.224;6.924;2023-04-24T03:21:26;9.50;99.90
43087;DHT22;28708;52.224;6.924;2023-04-24T03:23:52;9.50;99.90
43087;DHT22;28708;52.224;6.924;2023-04-24T03:26:18;9.50;99.90
43087;DHT22;28708;52.224;6.924;2023-04-24T03:28:57;9.50;99.90
43087;DHT22;28708;52.224;6.924;2023-04-24T03:31:22;9.50;99.90
43087;DHT22;28708;52.224;6.924;2023-04-24T03:33:48;9.50;99.90
43087;DHT22;28708;52.224;6.924;2023-04-24T03:36:14;9.50;99.90
43087;DHT22;28708;52.224;6.924;2023-04-24T03:38:40;9.50;99.90
43087;DHT22;28708;52.224;6.924;2023-04-24T03:41:20;9.50;99.90
43087;DHT22;28708;52.224;6.924;2023-04-24T03:43:54;9.40;99.90
43087;DHT22;28708;52.224;6.924;2023-04-24T03:46:20;9.50;99.90
43087;DHT22;28708;52.224;6.924;2023-04-24T03:48:52;9.50;99.90
43087;DHT22;28708;52.224;6.924;2023-04-24T03:51:21;9.50;99.90
43087;DHT22;28708;52.224;6.924;2023-04-24T03:53:50;9.50;99.90
43087;DHT22;28708;52.224;6.924;2023-04-24T03:56:19;9.40;99.90
43087;DHT22;28708;52.224;6.924;2023-04-24T03:58:45;9.50;99.90
43087;DHT22;28708;52.224;6.924;2023-04-24T04:01:11;9.50;99.90
43087;DHT22;28708;52.224;6.924;2023-04-24T04:03:46;9.60;99.90
43087;DHT22;28708;52.224;6.924;2023-04-24T04:06:15;9.50;99.90
43087;DHT22;28708;52.224;6.924;2023-04-24T04:08:41;9.50;99.90
43087;DHT22;28708;52.224;6.924;2023-04-24T04:11:07;9.50;99.90
43087;DHT22;28708;52.224;6.924;2023-04-24T04:13:33;9.40;99.90
43087;DHT22;28708;52.224;6.924;2023-04-24T04:15:59;9.50;99.90
43087;DHT22;28708;52.224;6.924;2023-04-24T04:18:24;9.50;99.90
43087;DHT22;28708;52.224;6.924;2023-04-24T04:20:50;9.50;99.90
43087;DHT22;28708;52.224;6.924;2023-04-24T04:23:16;9.40;99.90
43087;DHT22;28708;52.224;6.924;2023-04-24T04:26:03;9.40;99.90
43087;DHT22;28708;52.224;6.924;2023-04-24T04:28:40;9.40;99.90
43087;DHT22;28708;52.224;6.924;2023-04-24T04:31:06;9.40;99.90
43087;DHT22;28708;52.224;6.924;2023-04-24T04:33:33;9.30;99.90
43087;DHT22;28708;52.224;6.924;2023-04-24T04:35:59;9.30;99.90
43087;DHT22;28708;52.224;6.924;2023-04-24T04:38:27;9.30;99.90
43087;DHT22;28708;52.224;6.924;2023-04-24T04:41:08;9.30;99.90
43087;DHT22;28708;52.224;6.924;2023-04-24T04:43:34;9.30;99.90
43087;DHT22;28708;52.224;6.924;2023-04-24T04:46:00;9.40;99.90
43087;DHT22;28708;52.224;6.924;2023-04-24T04:48:46;9.30;99.90
43087;DHT22;28708;52.224;6.924;2023-04-24T04:51:12;9.30;99.90
43087;DHT22;28708;52.224;6.924;2023-04-24T04:53:38;9.30;99.90
43087;DHT22;28708;52.224;6.924;2023-04-24T04:56:04;9.20;99.90
43087;DHT22;28708;52.224;6.924;2023-04-24T04:58:37;9.30;99.90
43087;DHT22;28708;52.224;6.924;2023-04-24T05:01:05;9.30;99.90
43087;DHT22;28708;52.224;6.924;2023-04-24T05:03:36;9.30;99.90
43087;DHT22;28708;52.224;6.924;2023-04-24T05:06:06;9.40;99.90
43087;DHT22;28708;52.224;6.924;2023-04-24T05:08:34;9.40;99.90
43087;DHT22;28708;52.224;6.924;2023-04-24T05:11:01;9.40;99.90
43087;DHT22;28708;52.224;6.924;2023-04-24T05:13:28;9.40;99.90
43087;DHT22;28708;52.224;6.924;2023-04-24T05:15:55;9.40;99.90
43087;DHT22;28708;52.224;6.924;2023-04-24T05:18:21;9.50;99.90
43087;DHT22;28708;52.224;6.924;2023-04-24T05:20:47;9.40;99.90
43087;DHT22;28708;52.224;6.924;2023-04-24T05:23:13;9.40;99.90
43087;DHT22;28708;52.224;6.924;2023-04-24T05:25:40;9.30;99.90
43087;DHT22;28708;52.224;6.924;2023-04-24T05:28:10;9.40;99.90
43087;DHT22;28708;52.224;6.924;2023-04-24T05:30:35;9.40;99.90
43087;DHT22;28708;52.224;6.924;2023-04-24T05:33:01;9.40;99.90
43087;DHT22;28708;52.224;6.924;2023-04-24T05:35:27;9.40;99.90
43087;DHT22;28708;52.224;6.924;2023-04-24T05:37:53;9.40;99.90
43087;DHT22;28708;52.224;6.924;2023-04-24T05:40:19;9.40;99.90
43087;DHT22;28708;52.224;6.924;2023-04-24T05:42:44;9.30;99.90
43087;DHT22;28708;52.224;6.924;2023-04-24T05:45:10;9.40;99.90
43087;DHT22;28708;52.224;6.924;2023-04-24T05:47:42;9.20;99.90
43087;DHT22;28708;52.224;6.924;2023-04-24T05:50:09;9.30;99.90
43087;DHT22;28708;52.224;6.924;2023-04-24T05:52:35;9.30;99.90
43087;DHT22;28708;52.224;6.924;2023-04-24T05:55:04;9.30;99.90
43087;DHT22;28708;52.224;6.924;2023-04-24T05:57:32;9.30;99.90
43087;DHT22;28708;52.224;6.924;2023-04-24T06:00:02;9.30;99.90
43087;DHT22;28708;52.224;6.924;2023-04-24T06:02:39;9.30;99.90
43087;DHT22;28708;52.224;6.924;2023-04-24T06:05:06;9.30;99.90
43087;DHT22;28708;52.224;6.924;2023-04-24T06:07:33;9.30;99.90
43087;DHT22;28708;52.224;6.924;2023-04-24T06:10:02;9.30;99.90
43087;DHT22;28708;52.224;6.924;2023-04-24T06:12:31;9.30;99.90
43087;DHT22;28708;52.224;6.924;2023-04-24T06:15:01;9.40;99.90
43087;DHT22;28708;52.224;6.924;2023-04-24T06:17:46;9.30;99.90
43087;DHT22;28708;52.224;6.924;2023-04-24T06:20:14;9.50;99.90
43087;DHT22;28708;52.224;6.924;2023-04-24T06:22:40;9.40;99.90
43087;DHT22;28708;52.224;6.924;2023-04-24T06:25:06;9.50;99.90
43087;DHT22;28708;52.224;6.924;2023-04-24T06:27:32;9.50;99.90
43087;DHT22;28708;52.224;6.924;2023-04-24T06:29:58;9.50;99.90
43087;DHT22;28708;52.224;6.924;2023-04-24T06:32:24;9.60;99.90
43087;DHT22;28708;52.224;6.924;2023-04-24T06:34:53;9.50;99.90
43087;DHT22;28708;52.224;6.924;2023-04-24T06:37:22;9.50;99.90
43087;DHT22;28708;52.224;6.924;2023-04-24T06:39:48;9.60;99.90
43087;DHT22;28708;52.224;6.924;2023-04-24T06:42:13;9.50;99.90
43087;DHT22;28708;52.224;6.924;2023-04-24T06:44:42;9.60;99.90
43087;DHT22;28708;52.224;6.924;2023-04-24T06:47:09;9.60;99.90
43087;DHT22;28708;52.224;6.924;2023-04-24T06:49:38;9.70;99.90
43087;DHT22;28708;52.224;6.924;2023-04-24T06:52:05;9.70;99.90
43087;DHT22;28708;52.224;6.924;2023-04-24T06:54:31;9.70;99.90
43087;DHT22;28708;52.224;6.924;2023-04-24T06:56:58;9.70;99.90
43087;DHT22;28708;52.224;6.924;2023-04-24T06:59:24;9.70;99.90
43087;DHT22;28708;52.224;6.924;2023-04-24T07:01:50;9.50;99.90
43087;DHT22;28708;52.224;6.924;2023-04-24T07:04:17;9.60;99.90
43087;DHT22;28708;52.224;6.924;2023-04-24T07:06:43;9.30;99.90
43087;DHT22;28708;52.224;6.924;2023-04-24T07:09:09;9.30;99.90
43087;DHT22;28708;52.224;6.924;2023-04-24T07:11:35;9.30;99.90
43087;DHT22;28708;52.224;6.924;2023-04-24T07:14:03;9.30;99.90
43087;DHT22;28708;52.224;6.924;2023-04-24T07:16:28;9.30;99.90
43087;DHT22;28708;52.224;6.924;2023-04-24T07:18:55;9.30;99.90
43087;DHT22;28708;52.224;6.924;2023-04-24T07:21:21;9.40;99.90
43087;DHT22;28708;52.224;6.924;2023-04-24T07:23:46;9.30;99.90
43087;DHT22;28708;52.224;6.924;2023-04-24T07:26:12;9.30;99.90
43087;DHT22;28708;52.224;6.924;2023-04-24T07:28:40;9.20;99.90
43087;DHT22;28708;52.224;6.924;2023-04-24T07:31:07;9.10;99.90
43087;DHT22;28708;52.224;6.924;2023-04-24T07:33:33;9.00;99.90
43087;DHT22;28708;52.224;6.924;2023-04-24T07:35:59;9.00;99.90
43087;DHT22;28708;52.224;6.924;2023-04-24T07:38:25;9.00;99.90
43087;DHT22;28708;52.224;6.924;2023-04-24T07:40:51;8.90;99.90
43087;DHT22;28708;52.224;6.924;2023-04-24T07:43:17;8.90;99.90
43087;DHT22;28708;52.224;6.924;2023-04-24T07:45:43;8.90;99.90
43087;DHT22;28708;52.224;6.924;2023-04-24T07:48:09;8.90;99.90
43087;DHT22;28708;52.224;6.924;2023-04-24T07:50:35;8.90;99.90
43087;DHT22;28708;52.224;6.924;2023-04-24T07:53:02;9.00;99.90
43087;DHT22;28708;52.224;6.924;2023-04-24T07:55:28;9.00;99.90
43087;DHT22;28708;52.224;6.924;2023-04-24T07:57:53;9.00;99.90
43087;DHT22;28708;52.224;6.924;2023-04-24T08:00:19;9.00;99.90
43087;DHT22;28708;52.224;6.924;2023-04-24T08:02:45;9.00;99.90
43087;DHT22;28708;52.224;6.924;2023-04-24T08:05:11;9.00;99.90
43087;DHT22;28708;52.224;6.924;2023-04-24T08:07:36;9.00;99.90
43087;DHT22;28708;52.224;6.924;2023-04-24T08:10:03;9.00;99.90
43087;DHT22;28708;52.224;6.924;2023-04-24T08:12:29;9.10;99.90
43087;DHT22;28708;52.224;6.924;2023-04-24T08:14:55;9.10;99.90
43087;DHT22;28708;52.224;6.924;2023-04-24T08:17:21;9.00;99.90
43087;DHT22;28708;52.224;6.924;2023-04-24T08:19:46;9.00;99.90
43087;DHT22;28708;52.224;6.924;2023-04-24T08:22:17;8.90;99.90
43087;DHT22;28708;52.224;6.924;2023-04-24T08:24:43;9.00;99.90
43087;DHT22;28708;52.224;6.924;2023-04-24T08:27:09;9.00;99.90
43087;DHT22;28708;52.224;6.924;2023-04-24T08:29:36;8.90;99.90
43087;DHT22;28708;52.224;6.924;2023-04-24T08:32:02;9.00;99.90
43087;DHT22;28708;52.224;6.924;2023-04-24T08:34:27;9.00;99.90
43087;DHT22;28708;52.224;6.924;2023-04-24T08:36:53;9.00;99.90
43087;DHT22;28708;52.224;6.924;2023-04-24T08:39:19;9.00;99.90
43087;DHT22;28708;52.224;6.924;2023-04-24T08:41:45;9.10;99.90
43087;DHT22;28708;52.224;6.924;2023-04-24T08:44:11;9.10;99.90
43087;DHT22;28708;52.224;6.924;2023-04-24T08:46:39;9.10;99.90
43087;DHT22;28708;52.224;6.924;2023-04-24T08:49:06;9.10;99.90
43087;DHT22;28708;52.224;6.924;2023-04-24T08:51:31;9.20;99.90
43087;DHT22;28708;52.224;6.924;2023-04-24T08:53:58;9.30;99.90
43087;DHT22;28708;52.224;6.924;2023-04-24T08:56:23;9.30;99.90
43087;DHT22;28708;52.224;6.924;2023-04-24T08:58:51;9.30;99.90
43087;DHT22;28708;52.224;6.924;2023-04-24T09:01:19;9.30;99.90
43087;DHT22;28708;52.224;6.924;2023-04-24T09:03:48;9.40;99.90
43087;DHT22;28708;52.224;6.924;2023-04-24T09:06:16;9.40;99.90
43087;DHT22;28708;52.224;6.924;2023-04-24T09:08:43;9.40;99.90
43087;DHT22;28708;52.224;6.924;2023-04-24T09:11:11;9.50;99.90
43087;DHT22;28708;52.224;6.924;2023-04-24T09:13:37;9.50;99.90
43087;DHT22;28708;52.224;6.924;2023-04-24T09:16:03;9.50;99.90
43087;DHT22;28708;52.224;6.924;2023-04-24T09:18:29;9.50;99.90
43087;DHT22;28708;52.224;6.924;2023-04-24T09:21:03;9.40;99.90
43087;DHT22;28708;52.224;6.924;2023-04-24T09:23:31;9.40;99.90
43087;DHT22;28708;52.224;6.924;2023-04-24T09:25:57;9.40;99.90
43087;DHT22;28708;52.224;6.924;2023-04-24T09:28:30;9.50;99.90
43087;DHT22;28708;52.224;6.924;2023-04-24T09:33:36;9.30;99.90
43087;DHT22;28708;52.224;6.924;2023-04-24T09:36:02;9.40;99.90
43087;DHT22;28708;52.224;6.924;2023-04-24T09:38:33;9.50;99.90
43087;DHT22;28708;52.224;6.924;2023-04-24T09:41:00;9.50;99.90
43087;DHT22;28708;52.224;6.924;2023-04-24T09:43:28;9.40;99.90
43087;DHT22;28708;52.224;6.924;2023-04-24T09:45:56;9.30;99.90
43087;DHT22;28708;52.224;6.924;2023-04-24T09:48:37;9.20;99.90
43087;DHT22;28708;52.224;6.924;2023-04-24T09:51:04;9.10;99.90
43087;DHT22;28708;52.224;6.924;2023-04-24T09:53:32;9.10;99.90
43087;DHT22;28708;52.224;6.924;2023-04-24T09:56:03;9.00;99.90
43087;DHT22;28708;52.224;6.924;2023-04-24T09:58:32;9.00;99.90
43087;DHT22;28708;52.224;6.924;2023-04-24T10:00:57;8.90;99.90
43087;DHT22;28708;52.224;6.924;2023-04-24T10:03:29;9.00;99.90
43087;DHT22;28708;52.224;6.924;2023-04-24T10:05:59;9.00;99.90
43087;DHT22;28708;52.224;6.924;2023-04-24T10:08:25;8.80;99.90
43087;DHT22;28708;52.224;6.924;2023-04-24T10:10:52;8.80;99.90
43087;DHT22;28708;52.224;6.924;2023-04-24T10:13:18;8.80;99.90
43087;DHT22;28708;52.224;6.924;2023-04-24T10:15:43;8.90;99.90
43087;DHT22;28708;52.224;6.924;2023-04-24T10:18:10;8.90;99.90
43087;DHT22;28708;52.224;6.924;2023-04-24T10:20:40;8.90;99.90
43087;DHT22;28708;52.224;6.924;2023-04-24T10:23:06;9.00;99.90
43087;DHT22;28708;52.224;6.924;2023-04-24T10:25:34;9.00;99.90
43087;DHT22;28708;52.224;6.924;2023-04-24T10:28:01;9.10;99.90
43087;DHT22;28708;52.224;6.924;2023-04-24T10:30:28;9.10;99.90
43087;DHT22;28708;52.224;6.924;2023-04-24T10:32:54;9.20;99.90
43087;DHT22;28708;52.224;6.924;2023-04-24T10:35:21;9.20;99.90
43087;DHT22;28708;52.224;6.924;2023-04-24T10:37:54;9.20;99.90
43087;DHT22;28708;52.224;6.924;2023-04-24T10:40:27;9.10;99.90
43087;DHT22;28708;52.224;6.924;2023-04-24T10:42:53;9.10;99.90
43087;DHT22;28708;52.224;6.924;2023-04-24T10:45:21;9.10;99.90
43087;DHT22;28708;52.224;6.924;2023-04-24T10:48:01;9.10;99.90
43087;DHT22;28708;52.224;6.924;2023-04-24T10:50:28;9.20;99.90
43087;DHT22;28708;52.224;6.924;2023-04-24T10:53:06;9.10;99.90
43087;DHT22;28708;52.224;6.924;2023-04-24T10:58:43;9.00;99.90
43087;DHT22;28708;52.224;6.924;2023-04-24T11:01:27;9.10;99.90
43087;DHT22;28708;52.224;6.924;2023-04-24T11:04:01;9.00;99.90
43087;DHT22;28708;52.224;6.924;2023-04-24T11:06:34;9.00;99.90
43087;DHT22;28708;52.224;6.924;2023-04-24T11:09:08;9.00;99.90
43087;DHT22;28708;52.224;6.924;2023-04-24T11:11:38;9.00;99.90
43087;DHT22;28708;52.224;6.924;2023-04-24T11:14:08;8.90;99.90
43087;DHT22;28708;52.224;6.924;2023-04-24T11:16:54;8.90;99.90
43087;DHT22;28708;52.224;6.924;2023-04-24T11:19:26;9.10;99.90
43087;DHT22;28708;52.224;6.924;2023-04-24T11:22:14;9.10;99.90
43087;DHT22;28708;52.224;6.924;2023-04-24T11:27:21;9.20;99.90
43087;DHT22;28708;52.224;6.924;2023-04-24T11:32:33;9.30;99.90
43087;DHT22;28708;52.224;6.924;2023-04-24T11:35:02;9.20;99.90
43087;DHT22;28708;52.224;6.924;2023-04-24T11:37:36;9.00;99.90
43087;DHT22;28708;52.224;6.924;2023-04-24T11:40:04;9.00;99.90
43087;DHT22;28708;52.224;6.924;2023-04-24T11:42:40;8.90;99.90
43087;DHT22;28708;52.224;6.924;2023-04-24T11:45:14;9.00;99.90
43087;DHT22;28708;52.224;6.924;2023-04-24T11:47:39;9.00;99.90
43087;DHT22;28708;52.224;6.924;2023-04-24T11:50:08;9.00;99.90
43087;DHT22;28708;52.224;6.924;2023-04-24T11:52:38;9.00;99.90
43087;DHT22;28708;52.224;6.924;2023-04-24T11:55:04;9.00;99.90
43087;DHT22;28708;52.224;6.924;2023-04-24T11:57:32;9.00;99.90
43087;DHT22;28708;52.224;6.924;2023-04-24T12:00:03;9.10;99.90
43087;DHT22;28708;52.224;6.924;2023-04-24T12:02:37;9.30;99.90
43087;DHT22;28708;52.224;6.924;2023-04-24T12:05:03;9.30;99.90
43087;DHT22;28708;52.224;6.924;2023-04-24T12:07:29;9.30;99.90
43087;DHT22;28708;52.224;6.924;2023-04-24T12:09:57;9.30;99.90
43087;DHT22;28708;52.224;6.924;2023-04-24T12:12:27;9.40;99.90
43087;DHT22;28708;52.224;6.924;2023-04-24T12:14:57;9.70;99.90
43087;DHT22;28708;52.224;6.924;2023-04-24T12:17:28;9.70;99.90
43087;DHT22;28708;52.224;6.924;2023-04-24T12:20:06;9.70;99.90
43087;DHT22;28708;52.224;6.924;2023-04-24T12:22:54;9.70;99.90
43087;DHT22;28708;52.224;6.924;2023-04-24T12:25:24;9.70;99.90
43087;DHT22;28708;52.224;6.924;2023-04-24T12:30:29;9.60;99.90
43087;DHT22;28708;52.224;6.924;2023-04-24T12:32:57;9.50;99.90
43087;DHT22;28708;52.224;6.924;2023-04-24T12:35:25;9.30;99.90
43087;DHT22;28708;52.224;6.924;2023-04-24T12:37:51;9.30;99.90
43087;DHT22;28708;52.224;6.924;2023-04-24T12:40:18;9.30;99.90
43087;DHT22;28708;52.224;6.924;2023-04-24T12:42:44;9.20;99.90
43087;DHT22;28708;52.224;6.924;2023-04-24T12:45:10;9.30;99.90
43087;DHT22;28708;52.224;6.924;2023-04-24T12:47:38;9.40;99.90
43087;DHT22;28708;52.224;6.924;2023-04-24T12:50:05;9.40;99.90
43087;DHT22;28708;52.224;6.924;2023-04-24T12:52:31;9.20;99.90
43087;DHT22;28708;52.224;6.924;2023-04-24T12:54:58;9.30;99.90
43087;DHT22;28708;52.224;6.924;2023-04-24T12:57:25;9.50;99.90
43087;DHT22;28708;52.224;6.924;2023-04-24T12:59:55;9.60;99.90
43087;DHT22;28708;52.224;6.924;2023-04-24T13:02:22;9.80;99.90
43087;DHT22;28708;52.224;6.924;2023-04-24T13:04:48;9.90;99.90
43087;DHT22;28708;52.224;6.924;2023-04-24T13:07:14;10.00;99.90
43087;DHT22;28708;52.224;6.924;2023-04-24T13:09:44;9.80;99.90
43087;DHT22;28708;52.224;6.924;2023-04-24T13:12:11;9.70;99.90
43087;DHT22;28708;52.224;6.924;2023-04-24T13:14:38;9.60;99.90
43087;DHT22;28708;52.224;6.924;2023-04-24T13:17:04;9.60;99.90
43087;DHT22;28708;52.224;6.924;2023-04-24T13:19:36;9.60;99.90
43087;DHT22;28708;52.224;6.924;2023-04-24T13:22:02;9.50;99.90
43087;DHT22;28708;52.224;6.924;2023-04-24T13:24:27;9.40;99.90
43087;DHT22;28708;52.224;6.924;2023-04-24T13:26:53;9.40;99.90
43087;DHT22;28708;52.224;6.924;2023-04-24T13:29:19;9.40;99.90
43087;DHT22;28708;52.224;6.924;2023-04-24T13:31:46;9.50;99.90
43087;DHT22;28708;52.224;6.924;2023-04-24T13:34:12;9.70;99.90
43087;DHT22;28708;52.224;6.924;2023-04-24T13:36:38;9.90;99.90
43087;DHT22;28708;52.224;6.924;2023-04-24T13:39:05;9.80;99.90
43087;DHT22;28708;52.224;6.924;2023-04-24T13:41:32;9.70;99.90
43087;DHT22;28708;52.224;6.924;2023-04-24T13:43:58;9.70;99.90
43087;DHT22;28708;52.224;6.924;2023-04-24T13:46:24;9.70;99.90
43087;DHT22;28708;52.224;6.924;2023-04-24T13:48:49;9.60;99.90
43087;DHT22;28708;52.224;6.924;2023-04-24T13:51:15;9.50;99.90
43087;DHT22;28708;52.224;6.924;2023-04-24T13:53:41;9.50;99.90
43087;DHT22;28708;52.224;6.924;2023-04-24T13:56:06;9.30;99.90
43087;DHT22;28708;52.224;6.924;2023-04-24T13:58:33;9.30;99.90
43087;DHT22;28708;52.224;6.924;2023-04-24T14:00:58;9.30;99.90
43087;DHT22;28708;52.224;6.924;2023-04-24T14:03:24;9.30;99.90
43087;DHT22;28708;52.224;6.924;2023-04-24T14:05:50;9.30;99.90
43087;DHT22;28708;52.224;6.924;2023-04-24T14:08:15;9.50;99.90
43087;DHT22;28708;52.224;6.924;2023-04-24T14:10:42;9.60;99.90
43087;DHT22;28708;52.224;6.924;2023-04-24T14:13:08;9.90;99.90
43087;DHT22;28708;52.224;6.924;2023-04-24T14:15:35;10.10;99.90
43087;DHT22;28708;52.224;6.924;2023-04-24T14:18:01;9.90;99.90
43087;DHT22;28708;52.224;6.924;2023-04-24T14:20:27;10.00;99.90
43087;DHT22;28708;52.224;6.924;2023-04-24T14:22:52;10.00;99.90
43087;DHT22;28708;52.224;6.924;2023-04-24T14:25:18;10.10;99.90
43087;DHT22;28708;52.224;6.924;2023-04-24T14:27:44;10.00;99.90
43087;DHT22;28708;52.224;6.924;2023-04-24T14:30:11;9.90;99.90
43087;DHT22;28708;52.224;6.924;2023-04-24T14:32:38;9.90;99.90
43087;DHT22;28708;52.224;6.924;2023-04-24T14:35:05;9.70;99.90
43087;DHT22;28708;52.224;6.924;2023-04-24T14:37:31;9.80;99.90
43087;DHT22;28708;52.224;6.924;2023-04-24T14:39:57;9.80;99.90
43087;DHT22;28708;52.224;6.924;2023-04-24T14:42:23;9.90;99.90
43087;DHT22;28708;52.224;6.924;2023-04-24T14:44:48;9.80;99.90
43087;DHT22;28708;52.224;6.924;2023-04-24T14:47:14;9.80;99.90
43087;DHT22;28708;52.224;6.924;2023-04-24T14:49:40;9.80;99.90
43087;DHT22;28708;52.224;6.924;2023-04-24T14:52:06;9.90;99.90
43087;DHT22;28708;52.224;6.924;2023-04-24T14:54:31;9.70;99.90
43087;DHT22;28708;52.224;6.924;2023-04-24T14:56:57;9.80;99.90
43087;DHT22;28708;52.224;6.924;2023-04-24T14:59:22;9.90;99.90
43087;DHT22;28708;52.224;6.924;2023-04-24T15:01:48;10.20;99.90
43087;DHT22;28708;52.224;6.924;2023-04-24T15:04:15;10.30;99.90
43087;DHT22;28708;52.224;6.924;2023-04-24T15:06:40;10.00;99.90
43087;DHT22;28708;52.224;6.924;2023-04-24T15:09:06;9.90;99.90
43087;DHT22;28708;52.224;6.924;2023-04-24T15:11:32;9.70;99.90
43087;DHT22;28708;52.224;6.924;2023-04-24T15:13:57;9.30;99.90
43087;DHT22;28708;52.224;6.924;2023-04-24T15:16:24;9.10;99.90
43087;DHT22;28708;52.224;6.924;2023-04-24T15:18:49;8.90;99.90
43087;DHT22;28708;52.224;6.924;2023-04-24T15:21:15;8.90;99.90
43087;DHT22;28708;52.224;6.924;2023-04-24T15:23:40;9.10;99.90
43087;DHT22;28708;52.224;6.924;2023-04-24T15:26:06;9.30;99.90
43087;DHT22;28708;52.224;6.924;2023-04-24T15:28:31;9.40;99.90
43087;DHT22;28708;52.224;6.924;2023-04-24T15:30:57;9.40;99.90
43087;DHT22;28708;52.224;6.924;2023-04-24T15:33:23;9.50;99.90
43087;DHT22;28708;52.224;6.924;2023-04-24T15:35:49;9.30;99.90
43087;DHT22;28708;52.224;6.924;2023-04-24T15:38:14;9.40;99.90
43087;DHT22;28708;52.224;6.924;2023-04-24T15:40:40;9.50;99.90
43087;DHT22;28708;52.224;6.924;2023-04-24T15:43:06;9.80;99.90
43087;DHT22;28708;52.224;6.924;2023-04-24T15:45:32;9.80;99.90
43087;DHT22;28708;52.224;6.924;2023-04-24T15:47:58;9.90;99.90
43087;DHT22;28708;52.224;6.924;2023-04-24T15:50:24;10.00;99.90
43087;DHT22;28708;52.224;6.924;2023-04-24T15:52:49;10.00;99.90
43087;DHT22;28708;52.224;6.924;2023-04-24T15:55:15;10.00;99.90
43087;DHT22;28708;52.224;6.924;2023-04-24T15:57:41;9.90;99.90